Skip Navigation

Christman Field Latest Observations

Switch to metric unitsOther observation timesWeekly graphs

Date Time
MST
Temp
°F
RH
%
DewPt
°F
Wind
mph
Dir
°
Gust
mph
Dir
°
Press
in Hg
Solar
W/m^2
Prec
in
2019-10-19 12:25 60.9 16.7 15.4 9.3 124 14.9 185 24.658 639.3 0.00
2019-10-19 12:20 60.9 17.4 16.4 5.0 157 8.8 180 24.664 642.3 0.00
2019-10-19 12:15 59.9 17.1 15.2 7.0 149 12.3 138 24.667 645.2 0.00
2019-10-19 12:10 59.8 17.6 15.6 9.9 135 14.2 158 24.669 645.7 0.00
2019-10-19 12:05 59.1 18.9 16.8 7.7 183 11.5 181 24.676 647.6 0.00
2019-10-19 12:00 59.0 18.7 16.4 9.6 176 12.9 164 24.675 648.7 0.00
2019-10-19 11:55 59.1 18.5 16.3 9.5 123 12.7 128 24.676 650.1 0.00
2019-10-19 11:50 58.4 19.9 17.3 5.3 122 10.0 71 24.681 649.3 0.00
2019-10-19 11:45 58.0 19.3 16.3 2.6 36 7.5 106 24.685 646.5 0.00
2019-10-19 11:40 58.1 20.0 17.2 6.8 101 10.2 93 24.690 646.4 0.00
2019-10-19 11:35 58.5 20.1 17.6 5.6 114 8.8 114 24.689 643.8 0.00
2019-10-19 11:30 58.3 21.6 19.1 5.4 78 12.8 87 24.691 641.4 0.00
2019-10-19 11:25 58.2 21.0 18.5 7.1 53 14.4 104 24.694 641.1 0.00
2019-10-19 11:20 57.5 19.9 16.7 2.8 83 6.1 121 24.697 638.6 0.00
2019-10-19 11:15 57.2 21.3 17.9 7.9 139 12.7 149 24.699 635.7 0.00
2019-10-19 11:10 57.5 21.4 18.3 6.7 158 10.8 145 24.701 633.3 0.00
2019-10-19 11:05 57.3 21.9 18.6 6.5 110 9.9 144 24.709 630.5 0.00
2019-10-19 11:00 56.4 22.6 18.6 4.4 125 8.2 120 24.715 625.8 0.00
2019-10-19 10:55 56.0 22.7 18.4 7.4 95 12.9 127 24.717 621.0 0.00
2019-10-19 10:50 55.9 23.1 18.7 7.6 120 11.8 134 24.721 616.7 0.00
2019-10-19 10:45 55.5 23.8 19.1 7.7 105 11.2 130 24.722 612.5 0.00
2019-10-19 10:40 55.0 24.5 19.4 7.9 93 13.9 146 24.727 605.5 0.00
2019-10-19 10:35 55.2 24.7 19.7 9.0 176 11.8 114 24.729 600.6 0.00
2019-10-19 10:30 55.0 23.8 18.6 9.0 129 15.8 126 24.730 596.2 0.00
2019-10-19 10:25 55.2 24.1 19.1 8.9 147 14.4 135 24.733 589.7 0.00
2019-10-19 10:20 54.3 26.1 20.3 9.8 162 15.3 132 24.734 581.7 0.00
2019-10-19 10:15 54.4 28.9 22.7 7.7 130 14.3 128 24.739 572.7 0.00
2019-10-19 10:10 54.9 28.2 22.6 8.3 114 13.9 128 24.740 565.2 0.00
2019-10-19 10:05 54.9 25.4 20.1 9.4 158 17.0 123 24.736 559.8 0.00
2019-10-19 10:00 55.9 24.5 20.2 6.1 157 12.2 145 24.743 552.1 0.00